METAR AND TAF INFORMATION
METAR FOR ESSP
ADDS - METARS form results

(0400 UTC 26 February 2020)
Data provider http://aviationweather.gov/metar/data/
 
METAR text: ESSP 260350Z AUTO 02013KT 9999 FEW030/// BKN043/// OVC061/// M01/M04 Q0984
Conditions at: ESSP (NORRKOPING/KUNGS, SE) observed 0350 UTC 26 February 2020
Temperature: -1.0°C (30°F)
Dewpoint: -4.0°C (25°F) [RH = 80%]
Pressure (altimeter): 29.06 inches Hg (984.0 mb)
Winds: from the NNE (20 degrees) at 15 MPH (13 knots; 6.7 m/s)
Visibility: 6 or more miles (10+ km)
Ceiling: 4300 feet AGL
Clouds: few clouds at 3000 feet AGL
broken clouds at 4300 feet AGL
overcast cloud deck at 6100 feet AGL
Weather: no significant weather observed at this time

METAR text: ESSP 260320Z AUTO 02012KT 9999 BKN029/// BKN040/// OVC068/// M00/M04 Q0984
Conditions at: ESSP (NORRKOPING/KUNGS, SE) observed 0320 UTC 26 February 2020
Temperature: 0.0°C (32°F)
Dewpoint: -4.0°C (25°F) [RH = 74%]
Pressure (altimeter): 29.06 inches Hg (984.0 mb)
Winds: from the NNE (20 degrees) at 14 MPH (12 knots; 6.2 m/s)
Visibility: 6 or more miles (10+ km)
Ceiling: 2900 feet AGL
Clouds: broken clouds at 2900 feet AGL
broken clouds at 4000 feet AGL
overcast cloud deck at 6800 feet AGL
Weather: no significant weather observed at this time

Forecast for: ESSP (NORRKOPING/KUNGS, SE)
Text: TAF ESSP 251730Z 2518/2522 06015G25KT 5000 -SNRA SCT003 BKN015
Forecast period: 1800 to 2200 UTC 25 February 2020
Forecast type: FROM: standard forecast or significant change
Winds: from the ENE (60 degrees) at 17 MPH (15 knots; 7.7 m/s)
gusting to 29 MPH (25 knots; 12.9 m/s)
Visibility: 3 miles (5 km)
Ceiling: 1500 feet AGL
Clouds: scattered clouds at 300 feet AGL
broken clouds at 1500 feet AGL
Weather: -SN -RA  (light snow, light rain)
Text: TEMPO 2518/2522 1400 SN BKN003
Forecast period: 1800 to 2200 UTC 25 February 2020
Forecast type: TEMPORARY: The following changes expected for less than half the time period
Visibility: 0.87 miles (1.40 km)
Ceiling: 300 feet AGL
Clouds: broken clouds at 300 feet AGL
Weather: SN  (moderate snow)

 AIRPORT MAP

 RUNWAY INFORMATION
Runway 09 Runway length 7228 ft Runway width 148 ft
Runway elevation 13 ft Runway displaced threshold 0 ft Runway heading 91
Runway 27 Runway length 7228 ft Runway width 148 ft
Runway elevation 32 ft Runway displaced threshold 0 ft Runway heading 271
Runway 11 Runway length 1948 ft Runway width 115 ft
Runway elevation 7 ft Runway displaced threshold 0 ft Runway heading 115
Runway 29 Runway length 1948 ft Runway width 115 ft
Runway elevation 8 ft Runway displaced threshold 0 ft Runway heading 295

 AIRPORT FREQUENCIES
Type APP Name OSTGOTA AP Frequency 133.35 MHZ
Type TWR Name TWR Frequency 120.35 MHZ

 AIRPORT NEAR NAVIGATION AIDS



Powered by Virtual Airlines Manager [v2.6.2]